createdAt,value
2018-11-26T00:00:35.742Z,6.10
2018-11-26T00:03:09.262Z,6.10
2018-11-26T00:05:38.745Z,6.10
2018-11-26T00:08:09.276Z,6.20
2018-11-26T00:10:48.664Z,5.90
2018-11-26T00:13:17.990Z,5.70
2018-11-26T00:15:46.368Z,6.00
2018-11-26T00:18:14.691Z,6.00
2018-11-26T00:20:42.929Z,5.90
2018-11-26T00:23:11.160Z,5.80
2018-11-26T00:25:39.979Z,5.90
2018-11-26T00:28:08.704Z,6.00
2018-11-26T00:30:37.944Z,5.70
2018-11-26T00:33:07.662Z,5.60
2018-11-26T00:35:36.050Z,5.60
2018-11-26T00:38:04.247Z,5.70
2018-11-26T00:40:32.709Z,5.80
2018-11-26T00:43:02.519Z,6.00
2018-11-26T00:45:31.512Z,6.10
2018-11-26T00:47:59.861Z,6.20
2018-11-26T00:50:28.563Z,6.40
2018-11-26T00:52:56.593Z,6.30
2018-11-26T00:55:25.284Z,6.40
2018-11-26T00:57:55.006Z,6.30
2018-11-26T01:00:24.871Z,6.10
2018-11-26T01:02:53.797Z,6.30
2018-11-26T01:05:34.563Z,6.30
2018-11-26T01:08:03.393Z,6.30
2018-11-26T01:10:32.063Z,6.00
2018-11-26T01:13:01.757Z,6.10
2018-11-26T01:15:30.841Z,5.90
2018-11-26T01:17:59.863Z,6.00
2018-11-26T01:20:28.457Z,6.00
2018-11-26T01:22:57.373Z,6.10
2018-11-26T01:25:26.886Z,6.20
2018-11-26T01:27:55.054Z,6.20
2018-11-26T01:30:23.154Z,6.40
2018-11-26T01:32:51.287Z,6.40
2018-11-26T01:35:21.290Z,6.40
2018-11-26T01:37:49.750Z,6.40
2018-11-26T01:40:20.533Z,6.40
2018-11-26T01:42:48.938Z,6.30
2018-11-26T01:45:17.232Z,6.30
2018-11-26T01:47:47.157Z,6.30
2018-11-26T01:50:15.981Z,6.30
2018-11-26T01:52:44.567Z,6.40
2018-11-26T01:55:13.997Z,6.30
2018-11-26T01:57:42.339Z,6.30
2018-11-26T02:00:18.350Z,6.30
2018-11-26T02:02:47.313Z,6.20
2018-11-26T02:05:16.438Z,6.20
2018-11-26T02:07:45.378Z,6.10
2018-11-26T02:10:16.152Z,6.10
2018-11-26T02:12:44.214Z,6.20
2018-11-26T02:15:33.377Z,6.10
2018-11-26T02:18:03.926Z,6.10
2018-11-26T02:20:32.213Z,6.00
2018-11-26T02:23:01.015Z,6.10
2018-11-26T02:25:29.906Z,6.10
2018-11-26T02:27:58.090Z,6.00
2018-11-26T02:30:26.691Z,6.00
2018-11-26T02:32:55.502Z,6.00
2018-11-26T02:35:23.795Z,6.00
2018-11-26T02:37:53.419Z,6.00
2018-11-26T02:40:29.644Z,6.10
2018-11-26T02:42:58.694Z,6.10
2018-11-26T02:45:29.271Z,6.10
2018-11-26T02:47:57.645Z,6.10
2018-11-26T02:50:27.729Z,6.10
2018-11-26T02:52:57.808Z,6.10
2018-11-26T02:55:26.666Z,6.00
2018-11-26T02:57:55.637Z,6.10
2018-11-26T03:00:24.720Z,6.10
2018-11-26T03:02:54.525Z,6.10
2018-11-26T03:05:27.168Z,6.00
2018-11-26T03:07:55.378Z,6.10
2018-11-26T03:10:23.663Z,6.00
2018-11-26T03:12:51.945Z,5.90
2018-11-26T03:15:21.080Z,5.90
2018-11-26T03:17:50.809Z,5.90
2018-11-26T03:20:19.855Z,6.10
2018-11-26T03:22:48.651Z,6.00
2018-11-26T03:25:17.098Z,5.90
2018-11-26T03:27:45.774Z,5.90
2018-11-26T03:30:18.138Z,5.90
2018-11-26T03:32:46.952Z,5.90
2018-11-26T03:35:15.186Z,5.90
2018-11-26T03:37:43.501Z,5.90
2018-11-26T03:40:13.289Z,5.80
2018-11-26T03:42:42.909Z,5.80
2018-11-26T03:45:14.947Z,5.70
2018-11-26T03:47:43.922Z,5.70
2018-11-26T03:50:12.954Z,5.70
2018-11-26T03:52:43.713Z,5.70
2018-11-26T03:55:12.248Z,5.70
2018-11-26T03:57:40.604Z,5.70
2018-11-26T04:00:11.700Z,5.80
2018-11-26T04:02:39.926Z,5.80
2018-11-26T04:05:09.525Z,5.80
2018-11-26T04:07:37.652Z,5.80
2018-11-26T04:10:07.817Z,5.90
2018-11-26T04:12:36.166Z,5.90
2018-11-26T04:15:04.619Z,5.80
2018-11-26T04:17:33.463Z,5.70
2018-11-26T04:20:02.140Z,5.70
2018-11-26T04:22:30.655Z,5.70
2018-11-26T04:24:58.864Z,5.70
2018-11-26T04:27:27.889Z,5.60
2018-11-26T04:29:57.347Z,5.70
2018-11-26T04:32:26.901Z,5.60
2018-11-26T04:34:55.204Z,5.60
2018-11-26T04:37:24.522Z,5.60
2018-11-26T04:39:53.169Z,5.50
2018-11-26T04:42:21.250Z,5.50
2018-11-26T04:44:49.791Z,5.60
2018-11-26T04:47:18.103Z,5.40
2018-11-26T04:49:47.088Z,5.40
2018-11-26T04:52:15.878Z,5.40
2018-11-26T04:54:45.150Z,5.40
2018-11-26T04:57:13.337Z,5.40
2018-11-26T04:59:41.362Z,5.40
2018-11-26T05:02:09.773Z,5.50
2018-11-26T05:04:37.916Z,5.50
2018-11-26T05:07:06.175Z,5.60
2018-11-26T05:09:34.833Z,5.60
2018-11-26T05:12:03.061Z,5.60
2018-11-26T05:14:32.073Z,5.60
2018-11-26T05:17:01.468Z,5.60
2018-11-26T05:19:30.347Z,5.50
2018-11-26T05:21:58.668Z,5.50
2018-11-26T05:24:26.776Z,5.50
2018-11-26T05:26:55.211Z,5.50
2018-11-26T05:29:23.931Z,5.50
2018-11-26T05:31:53.899Z,5.40
2018-11-26T05:34:22.983Z,5.40
2018-11-26T05:36:53.728Z,5.40
2018-11-26T05:39:21.829Z,5.40
2018-11-26T05:41:51.903Z,5.40
2018-11-26T05:44:21.883Z,5.50
2018-11-26T05:46:50.764Z,5.40
2018-11-26T05:49:19.578Z,5.40
2018-11-26T05:51:49.052Z,5.40
2018-11-26T05:54:17.709Z,5.40
2018-11-26T05:56:46.104Z,5.40
2018-11-26T05:59:14.500Z,5.50
2018-11-26T06:01:42.583Z,5.40
2018-11-26T06:04:11.114Z,5.50
2018-11-26T06:06:39.411Z,5.40
2018-11-26T06:09:09.440Z,5.40
2018-11-26T06:11:39.066Z,5.40
2018-11-26T06:14:07.400Z,5.40
2018-11-26T06:16:36.785Z,5.40
2018-11-26T06:19:05.282Z,5.40
2018-11-26T06:21:35.119Z,5.30
2018-11-26T06:24:04.157Z,5.30
2018-11-26T06:26:33.322Z,5.30
2018-11-26T06:29:02.180Z,5.30
2018-11-26T06:31:31.286Z,5.30
2018-11-26T06:34:00.208Z,5.30
2018-11-26T06:36:28.864Z,5.30
2018-11-26T06:38:57.309Z,5.30
2018-11-26T06:41:26.251Z,5.30
2018-11-26T06:43:56.474Z,5.40
2018-11-26T06:46:26.062Z,5.30
2018-11-26T06:48:54.875Z,5.40
2018-11-26T06:51:23.792Z,5.40
2018-11-26T06:53:51.927Z,5.40
2018-11-26T06:56:20.660Z,5.30
2018-11-26T06:58:49.462Z,5.30
2018-11-26T07:01:17.912Z,5.30
2018-11-26T07:03:46.141Z,5.30
2018-11-26T07:06:16.445Z,5.20
2018-11-26T07:08:44.669Z,5.20
2018-11-26T07:11:14.848Z,5.20
2018-11-26T07:13:44.509Z,5.10
2018-11-26T07:16:13.796Z,5.10
2018-11-26T07:18:41.999Z,5.10
2018-11-26T07:21:10.338Z,5.00
2018-11-26T07:23:38.675Z,4.90
2018-11-26T07:26:07.126Z,5.00
2018-11-26T07:28:35.675Z,5.00
2018-11-26T07:31:05.766Z,5.00
2018-11-26T07:33:34.693Z,5.00
2018-11-26T07:36:03.098Z,4.90
2018-11-26T07:38:32.860Z,4.90
2018-11-26T07:41:02.894Z,4.90
2018-11-26T07:43:31.357Z,4.90
2018-11-26T07:46:00.193Z,4.70
2018-11-26T07:48:29.061Z,4.70
2018-11-26T07:50:57.188Z,4.70
2018-11-26T07:53:26.122Z,4.80
2018-11-26T07:55:55.306Z,4.90
2018-11-26T07:58:24.601Z,5.10
2018-11-26T08:00:55.269Z,5.20
2018-11-26T08:03:24.058Z,5.00
2018-11-26T08:05:53.000Z,5.00
2018-11-26T08:08:22.332Z,5.00
2018-11-26T08:10:51.762Z,5.00
2018-11-26T08:13:19.950Z,5.00
2018-11-26T08:15:49.128Z,4.90
2018-11-26T08:18:18.415Z,4.80
2018-11-26T08:20:46.912Z,4.90
2018-11-26T08:23:15.287Z,5.00
2018-11-26T08:25:45.148Z,5.00
2018-11-26T08:28:14.087Z,4.90
2018-11-26T08:30:55.591Z,4.90
2018-11-26T08:33:25.663Z,5.00
2018-11-26T08:35:59.942Z,4.90
2018-11-26T08:38:33.867Z,5.00
2018-11-26T08:41:13.467Z,4.90
2018-11-26T08:43:43.804Z,4.90
2018-11-26T08:46:18.723Z,5.00
2018-11-26T08:48:52.280Z,5.00
2018-11-26T08:51:21.388Z,5.00
2018-11-26T08:53:50.577Z,5.10
2018-11-26T08:56:20.014Z,5.20
2018-11-26T08:58:48.186Z,5.10
2018-11-26T09:01:18.732Z,5.10
2018-11-26T09:03:55.417Z,5.20
2018-11-26T09:06:23.801Z,5.30
2018-11-26T09:08:52.867Z,5.40
2018-11-26T09:11:21.976Z,5.40
2018-11-26T09:13:51.167Z,5.30
2018-11-26T09:16:21.199Z,5.10
2018-11-26T09:18:51.009Z,5.20
2018-11-26T09:21:20.735Z,5.30
2018-11-26T09:23:50.558Z,5.40
2018-11-26T09:26:19.390Z,5.40
2018-11-26T09:28:47.877Z,5.50
2018-11-26T09:31:17.980Z,5.50
2018-11-26T09:33:47.007Z,5.50
2018-11-26T09:36:16.203Z,5.60
2018-11-26T09:38:45.630Z,5.60
2018-11-26T09:41:15.623Z,5.80
2018-11-26T09:43:45.053Z,5.70
2018-11-26T09:46:19.677Z,5.90
2018-11-26T09:48:51.938Z,5.90
2018-11-26T09:51:24.178Z,5.80
2018-11-26T09:53:53.057Z,5.90
2018-11-26T09:56:21.490Z,5.90
2018-11-26T09:58:52.892Z,5.90
2018-11-26T10:01:24.217Z,5.90
2018-11-26T10:03:55.502Z,5.90
2018-11-26T10:06:25.666Z,5.90
2018-11-26T10:08:55.351Z,6.00
2018-11-26T10:11:28.201Z,6.00
2018-11-26T10:14:00.674Z,6.00
2018-11-26T10:16:29.895Z,5.90
2018-11-26T10:18:59.828Z,6.10
2018-11-26T10:21:35.032Z,5.90
2018-11-26T10:24:06.489Z,5.90
2018-11-26T10:26:37.094Z,5.90
2018-11-26T10:29:07.406Z,5.90
2018-11-26T10:31:36.445Z,6.00
2018-11-26T10:34:05.610Z,6.00
2018-11-26T10:36:35.242Z,5.90
2018-11-26T10:39:07.076Z,5.90
2018-11-26T10:41:36.709Z,5.80
2018-11-26T10:44:05.192Z,5.80
2018-11-26T10:46:35.899Z,5.90
2018-11-26T10:49:07.653Z,5.90
2018-11-26T10:51:36.818Z,6.00
2018-11-26T10:54:07.108Z,6.10
2018-11-26T10:56:37.939Z,6.10
2018-11-26T10:59:07.412Z,6.10
2018-11-26T11:01:37.952Z,6.10
2018-11-26T11:04:07.276Z,6.00
2018-11-26T11:06:38.216Z,6.00
2018-11-26T11:09:14.676Z,6.00
2018-11-26T11:11:43.769Z,5.90
2018-11-26T11:14:18.076Z,5.90
2018-11-26T11:16:48.009Z,6.00
2018-11-26T11:19:17.449Z,6.10
2018-11-26T11:21:46.995Z,6.10
2018-11-26T11:24:18.451Z,6.10
2018-11-26T11:26:48.368Z,6.10
2018-11-26T11:29:18.789Z,6.10
2018-11-26T11:31:48.196Z,6.00
2018-11-26T11:34:19.082Z,6.00
2018-11-26T11:36:47.520Z,6.00
2018-11-26T11:39:17.942Z,6.00
2018-11-26T11:41:48.027Z,6.00
2018-11-26T11:44:21.644Z,6.00
2018-11-26T11:46:52.820Z,6.10
2018-11-26T11:49:24.466Z,6.10
2018-11-26T11:51:54.375Z,6.10
2018-11-26T11:54:27.427Z,6.20
2018-11-26T11:56:58.901Z,6.20
2018-11-26T11:59:29.562Z,6.20
2018-11-26T12:01:58.455Z,6.10
2018-11-26T12:04:27.993Z,6.20
2018-11-26T12:06:58.047Z,6.20
2018-11-26T12:09:27.247Z,6.10
2018-11-26T12:11:58.319Z,6.10
2018-11-26T12:14:28.465Z,6.20
2018-11-26T12:16:57.227Z,6.00
2018-11-26T12:19:27.309Z,5.90
2018-11-26T12:21:58.539Z,5.90
2018-11-26T12:24:27.647Z,5.70
2018-11-26T12:27:01.341Z,5.60
2018-11-26T12:29:33.480Z,5.50
2018-11-26T12:32:03.509Z,5.50
2018-11-26T12:34:35.372Z,5.40
2018-11-26T12:37:04.842Z,5.20
2018-11-26T12:39:34.723Z,5.20
2018-11-26T12:42:05.066Z,5.10
2018-11-26T12:44:52.028Z,5.20
2018-11-26T12:47:22.520Z,5.10
2018-11-26T12:49:51.538Z,5.10
2018-11-26T12:52:22.313Z,5.00
2018-11-26T12:54:51.093Z,4.80
2018-11-26T12:57:22.504Z,4.70
2018-11-26T12:59:56.207Z,4.60
2018-11-26T13:02:25.805Z,4.60
2018-11-26T13:04:57.763Z,4.70
2018-11-26T13:07:27.847Z,4.60
2018-11-26T13:09:56.249Z,4.60
2018-11-26T13:15:01.430Z,4.60
2018-11-26T13:17:30.761Z,4.60
2018-11-26T13:20:01.263Z,4.60
2018-11-26T13:22:37.611Z,4.60
2018-11-26T13:25:09.269Z,4.50
2018-11-26T13:27:38.581Z,4.60
2018-11-26T13:30:18.098Z,4.60
2018-11-26T13:32:47.651Z,4.70
2018-11-26T13:35:18.959Z,4.70
2018-11-26T13:37:47.709Z,4.60
2018-11-26T13:40:18.970Z,4.70
2018-11-26T13:42:48.539Z,4.70
2018-11-26T13:45:24.638Z,4.70
2018-11-26T13:47:54.548Z,4.80
2018-11-26T13:50:25.239Z,4.70
2018-11-26T13:52:59.016Z,4.60
2018-11-26T13:55:29.685Z,4.70
2018-11-26T13:58:00.815Z,4.70
2018-11-26T14:00:30.089Z,4.80
2018-11-26T14:03:02.117Z,4.80
2018-11-26T14:05:36.622Z,4.70
2018-11-26T14:08:06.683Z,4.80
2018-11-26T14:10:38.802Z,4.70
2018-11-26T14:13:15.860Z,4.80
2018-11-26T14:15:47.781Z,4.90
2018-11-26T14:18:16.039Z,4.80
2018-11-26T14:20:45.671Z,4.80
2018-11-26T14:23:15.508Z,4.70
2018-11-26T14:25:46.693Z,4.90
2018-11-26T14:28:15.632Z,4.90
2018-11-26T14:30:46.184Z,4.90
2018-11-26T14:33:14.942Z,4.90
2018-11-26T14:35:44.656Z,4.90
2018-11-26T14:38:14.986Z,4.90
2018-11-26T14:40:50.470Z,4.90
2018-11-26T14:43:19.902Z,4.90
2018-11-26T14:45:49.862Z,4.90
2018-11-26T14:48:21.134Z,4.90
2018-11-26T14:50:51.046Z,4.80
2018-11-26T14:53:20.850Z,4.90
2018-11-26T14:55:50.206Z,4.80
2018-11-26T14:58:18.384Z,4.80
2018-11-26T15:00:47.818Z,4.80
2018-11-26T15:03:17.299Z,4.90
2018-11-26T15:05:46.208Z,4.90
2018-11-26T15:08:17.381Z,4.90
2018-11-26T15:10:46.508Z,5.00
2018-11-26T15:13:15.927Z,5.00
2018-11-26T15:15:44.601Z,5.00
2018-11-26T15:18:14.592Z,5.00
2018-11-26T15:20:43.622Z,5.10
2018-11-26T15:23:13.175Z,5.10
2018-11-26T15:25:43.974Z,5.10
2018-11-26T15:28:13.845Z,5.00
2018-11-26T15:30:45.097Z,5.10
2018-11-26T15:33:15.825Z,5.00
2018-11-26T15:35:44.770Z,5.10
2018-11-26T15:38:13.643Z,5.00
2018-11-26T15:40:44.407Z,5.00
2018-11-26T15:43:13.041Z,5.10
2018-11-26T15:45:43.058Z,5.10
2018-11-26T15:48:13.432Z,5.10
2018-11-26T15:50:43.275Z,5.20
2018-11-26T15:53:13.814Z,5.20
2018-11-26T15:55:44.492Z,5.30
2018-11-26T15:58:17.042Z,5.30
2018-11-26T16:00:46.635Z,5.20
2018-11-26T16:03:17.409Z,5.20
2018-11-26T16:05:46.732Z,5.30
2018-11-26T16:08:18.050Z,5.30
2018-11-26T16:10:48.276Z,5.20
2018-11-26T16:13:17.630Z,5.20
2018-11-26T16:15:45.948Z,5.20
2018-11-26T16:18:21.499Z,5.20
2018-11-26T16:20:50.648Z,5.30
2018-11-26T16:23:21.024Z,5.40
2018-11-26T16:25:50.395Z,5.40
2018-11-26T16:28:23.403Z,5.30
2018-11-26T16:30:54.450Z,5.40
2018-11-26T16:33:22.774Z,5.40
2018-11-26T16:35:53.118Z,5.40
2018-11-26T16:38:28.717Z,5.40
2018-11-26T16:40:59.019Z,5.50
2018-11-26T16:43:28.210Z,5.50
2018-11-26T16:45:59.670Z,5.50
2018-11-26T16:48:29.629Z,5.40
2018-11-26T16:50:59.657Z,5.30
2018-11-26T16:53:31.565Z,5.30
2018-11-26T16:56:01.361Z,5.20
2018-11-26T16:58:33.779Z,5.20
2018-11-26T17:01:03.417Z,5.30
2018-11-26T17:03:33.231Z,5.30
2018-11-26T17:06:06.198Z,5.40
2018-11-26T17:08:42.321Z,5.40
2018-11-26T17:11:12.246Z,5.30
2018-11-26T17:13:43.509Z,5.20
2018-11-26T17:16:21.959Z,5.30
2018-11-26T17:18:58.988Z,5.10
2018-11-26T17:21:29.909Z,5.10
2018-11-26T17:24:05.152Z,5.10
2018-11-26T17:26:41.715Z,5.20
2018-11-26T17:29:12.159Z,5.10
2018-11-26T17:34:19.787Z,5.20
2018-11-26T17:36:50.317Z,5.20
2018-11-26T17:39:21.818Z,5.20
2018-11-26T17:41:53.479Z,5.20
2018-11-26T17:44:24.819Z,5.20
2018-11-26T17:47:00.919Z,5.20
2018-11-26T17:49:35.362Z,5.10
2018-11-26T17:52:06.778Z,5.00
2018-11-26T17:54:36.155Z,5.00
2018-11-26T17:57:06.529Z,5.10
2018-11-26T17:59:36.008Z,5.10
2018-11-26T18:02:08.986Z,5.10
2018-11-26T18:04:39.262Z,5.20
2018-11-26T18:07:10.021Z,5.20
2018-11-26T18:09:42.639Z,5.10
2018-11-26T18:12:13.048Z,5.10
2018-11-26T18:14:44.292Z,5.20
2018-11-26T18:17:16.368Z,5.20
2018-11-26T18:19:48.548Z,5.20
2018-11-26T18:22:23.287Z,5.10
2018-11-26T18:24:54.300Z,5.10
2018-11-26T18:27:25.862Z,5.20
2018-11-26T18:29:57.007Z,5.20
2018-11-26T18:35:20.276Z,5.30
2018-11-26T18:37:52.750Z,5.20
2018-11-26T18:40:27.272Z,5.20
2018-11-26T18:43:03.737Z,5.20
2018-11-26T18:45:35.401Z,5.30
2018-11-26T18:48:04.589Z,5.20
2018-11-26T18:50:36.077Z,5.00
2018-11-26T18:53:07.191Z,5.00
2018-11-26T18:55:39.811Z,5.10
2018-11-26T18:58:10.468Z,5.20
2018-11-26T19:00:51.327Z,5.20
2018-11-26T19:03:29.266Z,5.30
2018-11-26T19:05:59.895Z,5.30
2018-11-26T19:08:31.819Z,5.20
2018-11-26T19:11:10.718Z,5.20
2018-11-26T19:13:51.242Z,5.20
2018-11-26T19:16:23.833Z,5.10
2018-11-26T19:18:54.452Z,5.10
2018-11-26T19:21:24.199Z,5.00
2018-11-26T19:23:59.823Z,5.00
2018-11-26T19:26:38.410Z,5.00
2018-11-26T19:29:16.211Z,5.10
2018-11-26T19:31:55.930Z,5.10
2018-11-26T19:34:22.185Z,5.00
2018-11-26T19:36:54.998Z,4.90
2018-11-26T19:39:35.563Z,4.90
2018-11-26T19:42:06.061Z,4.80
2018-11-26T19:44:37.650Z,4.80
2018-11-26T19:47:11.220Z,4.90
2018-11-26T19:49:47.134Z,4.90
2018-11-26T19:52:15.320Z,4.90
2018-11-26T19:54:44.187Z,4.90
2018-11-26T19:57:15.194Z,4.80
2018-11-26T19:59:47.228Z,4.70
2018-11-26T20:02:29.547Z,4.60
2018-11-26T20:05:07.060Z,4.60
2018-11-26T20:07:36.235Z,4.60
2018-11-26T20:10:12.723Z,4.60
2018-11-26T20:12:51.043Z,4.60
2018-11-26T20:15:37.741Z,4.60
2018-11-26T20:18:07.538Z,4.70
2018-11-26T20:20:46.055Z,4.60
2018-11-26T20:23:17.095Z,4.50
2018-11-26T20:25:55.121Z,4.40
2018-11-26T20:31:15.695Z,4.30
2018-11-26T20:33:45.974Z,4.50
2018-11-26T20:36:17.767Z,4.60
2018-11-26T20:38:54.185Z,4.50
2018-11-26T20:41:32.286Z,4.50
2018-11-26T20:44:05.253Z,4.50
2018-11-26T20:46:49.159Z,4.50
2018-11-26T20:51:53.646Z,4.60
2018-11-26T20:54:24.643Z,4.70
2018-11-26T20:56:57.593Z,4.70
2018-11-26T20:59:29.992Z,4.50
2018-11-26T21:02:02.549Z,4.50
2018-11-26T21:04:30.851Z,4.40
2018-11-26T21:07:02.229Z,4.20
2018-11-26T21:09:33.648Z,4.10
2018-11-26T21:12:04.284Z,4.20
2018-11-26T21:14:35.891Z,4.20
2018-11-26T21:19:49.712Z,4.30
2018-11-26T21:22:15.639Z,4.30
2018-11-26T21:24:48.470Z,4.20
2018-11-26T21:27:24.524Z,4.00
2018-11-26T21:29:54.336Z,4.00
2018-11-26T21:32:24.576Z,3.80
2018-11-26T21:34:54.090Z,3.70
2018-11-26T21:37:27.694Z,3.70
2018-11-26T21:40:02.178Z,3.90
2018-11-26T21:42:31.222Z,3.90
2018-11-26T21:44:59.722Z,4.00
2018-11-26T21:47:29.908Z,3.90
2018-11-26T21:50:00.949Z,4.00
2018-11-26T21:52:29.299Z,4.00
2018-11-26T21:54:59.054Z,3.90
2018-11-26T21:57:28.839Z,3.90
2018-11-26T21:59:58.940Z,3.90
2018-11-26T22:02:28.867Z,4.00
2018-11-26T22:04:58.007Z,4.10
2018-11-26T22:07:26.559Z,4.00
2018-11-26T22:09:55.851Z,4.00
2018-11-26T22:12:25.680Z,4.00
2018-11-26T22:14:54.784Z,4.00
2018-11-26T22:17:23.403Z,4.00
2018-11-26T22:19:52.443Z,3.90
2018-11-26T22:22:21.143Z,3.90
2018-11-26T22:24:52.438Z,3.90
2018-11-26T22:27:20.928Z,3.90
2018-11-26T22:29:50.108Z,3.90
2018-11-26T22:32:19.635Z,3.80
2018-11-26T22:34:48.645Z,3.80
2018-11-26T22:37:18.295Z,3.80
2018-11-26T22:39:47.697Z,3.80
2018-11-26T22:42:17.061Z,3.90
2018-11-26T22:44:46.563Z,3.80
2018-11-26T22:47:14.755Z,3.80
2018-11-26T22:49:43.276Z,3.80
2018-11-26T22:52:11.935Z,3.90
2018-11-26T22:54:41.033Z,3.80
2018-11-26T22:57:09.097Z,3.70
2018-11-26T22:59:38.111Z,3.60
2018-11-26T23:02:06.235Z,3.70
2018-11-26T23:04:35.905Z,3.80
2018-11-26T23:07:05.427Z,3.80
2018-11-26T23:09:34.196Z,4.00
2018-11-26T23:12:04.243Z,4.10
2018-11-26T23:14:32.808Z,4.20
2018-11-26T23:17:01.065Z,4.30
2018-11-26T23:19:30.785Z,4.40
2018-11-26T23:21:59.782Z,4.50
2018-11-26T23:24:28.056Z,4.40
2018-11-26T23:26:57.543Z,4.20
2018-11-26T23:29:26.715Z,4.00
2018-11-26T23:31:56.061Z,4.00
2018-11-26T23:34:25.484Z,4.00
2018-11-26T23:36:54.469Z,4.00
2018-11-26T23:39:22.711Z,3.90
2018-11-26T23:41:51.849Z,3.90
2018-11-26T23:44:21.454Z,3.80
2018-11-26T23:46:51.050Z,3.80
2018-11-26T23:49:20.576Z,3.70
2018-11-26T23:51:49.422Z,3.80
2018-11-26T23:54:18.522Z,3.70
2018-11-26T23:56:46.927Z,3.60
2018-11-26T23:59:15.754Z,3.60
